createdAt,value
2023-02-11T00:01:30.508Z,-2.22
2023-02-11T00:04:32.937Z,-2.24
2023-02-11T00:07:35.368Z,-2.25
2023-02-11T00:10:37.833Z,-2.25
2023-02-11T00:13:40.170Z,-2.28
2023-02-11T00:16:42.751Z,-2.34
2023-02-11T00:19:44.976Z,-2.34
2023-02-11T00:22:47.431Z,-2.34
2023-02-11T00:25:49.748Z,-2.40
2023-02-11T00:28:53.428Z,-2.47
2023-02-11T00:31:55.736Z,-2.54
2023-02-11T00:34:59.457Z,-2.37
2023-02-11T00:38:01.585Z,-2.20
2023-02-11T00:41:04.235Z,-2.07
2023-02-11T00:44:06.872Z,-1.90
2023-02-11T00:47:09.306Z,-1.89
2023-02-11T00:50:11.424Z,-1.92
2023-02-11T00:53:13.912Z,-1.94
2023-02-11T00:56:16.172Z,-1.90
2023-02-11T00:59:18.621Z,-1.81
2023-02-11T01:02:20.763Z,-1.80
2023-02-11T01:05:23.244Z,-1.65
2023-02-11T01:08:25.463Z,-1.61
2023-02-11T01:11:27.872Z,-1.54
2023-02-11T01:14:30.124Z,-1.48
2023-02-11T01:17:33.077Z,-1.34
2023-02-11T01:20:35.410Z,-1.34
2023-02-11T01:23:37.985Z,-1.33
2023-02-11T01:26:40.130Z,-1.36
2023-02-11T01:29:42.581Z,-1.33
2023-02-11T01:32:44.773Z,-1.21
2023-02-11T01:35:47.634Z,-1.23
2023-02-11T01:38:49.922Z,-1.30
2023-02-11T01:41:54.742Z,-1.24
2023-02-11T01:44:58.097Z,-1.28
2023-02-11T01:48:02.444Z,-1.24
2023-02-11T01:51:18.243Z,-1.37
2023-02-11T01:54:43.924Z,-1.51
2023-02-11T01:57:51.350Z,-1.63
2023-02-11T02:00:55.014Z,-1.76
2023-02-11T02:04:01.977Z,-2.02
2023-02-11T02:07:11.120Z,-2.07
2023-02-11T02:10:19.169Z,-2.01
2023-02-11T02:13:23.147Z,-1.97
2023-02-11T02:16:33.697Z,-1.81
2023-02-11T02:20:21.708Z,-1.80
2023-02-11T02:23:52.608Z,-1.82
2023-02-11T02:27:12.823Z,-1.89
2023-02-11T02:30:52.995Z,-1.92
2023-02-11T02:34:36.530Z,-2.05
2023-02-11T02:37:51.338Z,-2.09
2023-02-11T02:40:59.365Z,-2.25
2023-02-11T02:44:02.592Z,-2.26
2023-02-11T02:47:04.817Z,-2.22
2023-02-11T02:50:09.706Z,-2.05
2023-02-11T02:53:32.388Z,-2.20
2023-02-11T02:57:08.610Z,-2.34
2023-02-11T03:00:42.210Z,-2.47
2023-02-11T03:04:08.810Z,-2.48
2023-02-11T03:07:27.665Z,-2.43
2023-02-11T03:10:34.264Z,-2.49
2023-02-11T03:13:39.297Z,-2.60
2023-02-11T03:16:45.635Z,-2.67
2023-02-11T03:19:51.733Z,-2.74
2023-02-11T03:22:58.369Z,-2.69
2023-02-11T03:26:08.421Z,-2.59
2023-02-11T03:29:29.020Z,-2.89
2023-02-11T03:32:36.804Z,-2.78
2023-02-11T03:35:45.900Z,-2.91
2023-02-11T03:38:52.352Z,-2.88
2023-02-11T03:41:58.582Z,-2.87
2023-02-11T03:45:09.200Z,-2.80
2023-02-11T03:48:14.546Z,-2.88
2023-02-11T03:51:17.426Z,-2.87
2023-02-11T03:54:26.570Z,-2.92
2023-02-11T03:57:28.792Z,-2.85
2023-02-11T04:00:34.158Z,-2.84
2023-02-11T04:03:36.696Z,-2.87
2023-02-11T04:06:39.257Z,-2.98
2023-02-11T04:09:41.772Z,-2.97
2023-02-11T04:12:43.946Z,-2.97
2023-02-11T04:15:48.801Z,-2.88
2023-02-11T04:18:51.279Z,-2.89
2023-02-11T04:21:53.752Z,-2.91
2023-02-11T04:24:55.984Z,-2.93
2023-02-11T04:27:58.456Z,-2.95
2023-02-11T04:31:00.648Z,-2.95
2023-02-11T04:34:03.140Z,-2.94
2023-02-11T04:37:05.345Z,-2.90
2023-02-11T04:40:08.509Z,-2.89
2023-02-11T04:43:10.696Z,-2.87
2023-02-11T04:46:13.295Z,-2.96
2023-02-11T04:49:16.760Z,-2.90
2023-02-11T04:52:19.298Z,-3.03
2023-02-11T04:55:21.520Z,-3.13
2023-02-11T04:58:24.354Z,-3.14
2023-02-11T05:01:26.643Z,-3.13
2023-02-11T05:04:29.168Z,-3.11
2023-02-11T05:07:31.460Z,-3.07
2023-02-11T05:10:34.458Z,-3.06
2023-02-11T05:13:37.063Z,-3.26
2023-02-11T05:16:39.611Z,-3.20
2023-02-11T05:19:42.137Z,-3.27
2023-02-11T05:22:44.585Z,-3.19
2023-02-11T05:25:46.753Z,-3.21
2023-02-11T05:28:49.189Z,-3.16
2023-02-11T05:31:51.366Z,-3.13
2023-02-11T05:34:53.822Z,-3.28
2023-02-11T05:37:56.031Z,-3.27
2023-02-11T05:40:58.548Z,-3.33
2023-02-11T05:44:00.785Z,-3.34
2023-02-11T05:47:03.395Z,-3.38
2023-02-11T05:50:06.252Z,-3.33
2023-02-11T05:53:08.718Z,-3.46
2023-02-11T05:56:11.616Z,-3.46
2023-02-11T05:59:14.883Z,-3.37
2023-02-11T06:02:17.078Z,-3.35
2023-02-11T06:05:19.968Z,-3.36
2023-02-11T06:08:22.301Z,-3.35
2023-02-11T06:11:24.793Z,-3.53
2023-02-11T06:14:27.410Z,-3.47
2023-02-11T06:17:33.714Z,-3.42
2023-02-11T06:20:36.074Z,-3.34
2023-02-11T06:23:39.179Z,-3.31
2023-02-11T06:26:41.409Z,-3.26
2023-02-11T06:29:43.860Z,-3.16
2023-02-11T06:32:46.427Z,-3.13
2023-02-11T06:35:49.637Z,-3.03
2023-02-11T06:38:53.311Z,-2.93
2023-02-11T06:41:55.715Z,-2.93
2023-02-11T06:44:57.901Z,-2.84
2023-02-11T06:48:00.360Z,-2.70
2023-02-11T06:51:07.137Z,-2.73
2023-02-11T06:54:11.243Z,-2.66
2023-02-11T06:57:13.431Z,-2.64
2023-02-11T07:00:16.381Z,-2.59
2023-02-11T07:03:18.635Z,-2.50
2023-02-11T07:06:24.722Z,-2.43
2023-02-11T07:09:26.883Z,-2.40
2023-02-11T07:12:29.518Z,-2.37
2023-02-11T07:15:31.797Z,-2.33
2023-02-11T07:18:34.467Z,-2.22
2023-02-11T07:21:36.666Z,-2.11
2023-02-11T07:24:39.175Z,-2.10
2023-02-11T07:27:41.365Z,-2.09
2023-02-11T07:30:43.831Z,-2.05
2023-02-11T07:33:46.513Z,-1.82
2023-02-11T07:36:49.298Z,-1.46
2023-02-11T07:39:51.472Z,-1.05
2023-02-11T07:42:53.891Z,-0.64
2023-02-11T07:45:56.094Z,-0.27
2023-02-11T07:48:58.502Z,0.02
2023-02-11T07:52:00.648Z,0.29
2023-02-11T07:55:04.883Z,0.42
2023-02-11T07:58:07.138Z,0.54
2023-02-11T08:01:18.653Z,0.62
2023-02-11T08:04:21.248Z,0.73
2023-02-11T08:07:23.403Z,0.82
2023-02-11T08:10:25.798Z,0.84
2023-02-11T08:13:27.980Z,0.95
2023-02-11T08:16:35.450Z,0.95
2023-02-11T08:19:38.853Z,1.12
2023-02-11T08:22:41.296Z,1.21
2023-02-11T08:25:43.478Z,1.37
2023-02-11T08:28:48.070Z,1.35
2023-02-11T08:31:50.288Z,1.37
2023-02-11T08:34:53.269Z,1.43
2023-02-11T08:37:55.496Z,1.47
2023-02-11T08:41:00.660Z,1.42
2023-02-11T08:44:03.036Z,1.45
2023-02-11T08:47:05.463Z,1.41
2023-02-11T08:50:08.043Z,1.40
2023-02-11T08:53:10.587Z,1.38
2023-02-11T08:56:14.430Z,1.51
2023-02-11T08:59:17.744Z,1.55
2023-02-11T09:02:20.020Z,1.45
2023-02-11T09:05:23.163Z,1.48
2023-02-11T09:08:25.282Z,1.53
2023-02-11T09:11:30.962Z,1.65
2023-02-11T09:14:33.254Z,1.72
2023-02-11T09:17:35.683Z,1.85
2023-02-11T09:20:37.807Z,2.12
2023-02-11T09:23:43.504Z,2.29
2023-02-11T09:26:45.667Z,2.46
2023-02-11T09:29:48.153Z,2.55
2023-02-11T09:32:50.279Z,3.09
2023-02-11T09:35:52.716Z,3.21
2023-02-11T09:38:55.379Z,3.19
2023-02-11T09:42:18.348Z,3.24
2023-02-11T09:45:29.522Z,3.31
2023-02-11T09:48:40.788Z,3.35
2023-02-11T09:51:49.989Z,3.23
2023-02-11T09:54:58.834Z,3.24
2023-02-11T09:58:05.127Z,3.40
2023-02-11T10:01:28.944Z,3.70
2023-02-11T10:05:13.358Z,3.87
2023-02-11T10:08:50.707Z,3.88
2023-02-11T10:12:04.482Z,3.92
2023-02-11T10:15:06.532Z,4.04
2023-02-11T10:18:17.958Z,4.21
2023-02-11T10:21:20.063Z,4.14
2023-02-11T10:24:22.496Z,4.13
2023-02-11T10:27:30.723Z,4.08
2023-02-11T10:30:38.872Z,4.16
2023-02-11T10:33:58.242Z,4.40
2023-02-11T10:37:00.727Z,4.32
2023-02-11T10:40:03.268Z,4.39
2023-02-11T10:43:10.523Z,4.49
2023-02-11T10:46:19.460Z,4.47
2023-02-11T10:49:46.018Z,4.39
2023-02-11T10:52:48.637Z,4.49
2023-02-11T10:55:57.277Z,4.36
2023-02-11T10:59:06.012Z,4.45
2023-02-11T11:02:31.980Z,4.68
2023-02-11T11:05:47.117Z,4.73
2023-02-11T11:08:51.617Z,4.70
2023-02-11T11:11:53.923Z,4.91
2023-02-11T11:14:59.922Z,5.03
2023-02-11T11:18:28.113Z,5.07
2023-02-11T11:21:40.643Z,5.16
2023-02-11T11:24:46.685Z,5.32
2023-02-11T11:27:51.204Z,5.39
2023-02-11T11:30:55.892Z,5.35
2023-02-11T11:34:00.940Z,5.30
2023-02-11T11:37:22.056Z,5.32
2023-02-11T11:40:27.932Z,5.25
2023-02-11T11:43:30.221Z,5.63
2023-02-11T11:46:35.864Z,5.91
2023-02-11T11:49:40.894Z,6.16
2023-02-11T11:53:03.989Z,6.32
2023-02-11T11:56:13.184Z,6.49
2023-02-11T11:59:17.078Z,6.44
2023-02-11T12:02:50.627Z,6.21
2023-02-11T12:06:25.028Z,6.16
2023-02-11T12:09:51.751Z,6.50
2023-02-11T12:13:17.563Z,6.57
2023-02-11T12:16:25.312Z,6.49
2023-02-11T12:19:46.389Z,6.51
2023-02-11T12:23:28.989Z,6.51
2023-02-11T12:26:57.894Z,6.41
2023-02-11T12:30:18.342Z,6.50
2023-02-11T12:33:53.768Z,6.33
2023-02-11T12:37:27.170Z,6.53
2023-02-11T12:40:46.313Z,6.51
2023-02-11T12:43:49.772Z,6.56
2023-02-11T12:47:08.377Z,6.64
2023-02-11T12:50:25.382Z,6.67
2023-02-11T12:54:10.819Z,6.52
2023-02-11T12:57:26.557Z,6.58
2023-02-11T13:00:42.004Z,6.61
2023-02-11T13:03:54.241Z,6.71
2023-02-11T13:07:02.263Z,6.73
2023-02-11T13:10:07.611Z,6.71
2023-02-11T13:13:31.612Z,6.78
2023-02-11T13:16:42.682Z,7.00
2023-02-11T13:19:52.858Z,7.19
2023-02-11T13:23:22.823Z,7.04
2023-02-11T13:26:45.607Z,6.97
2023-02-11T13:30:25.440Z,7.06
2023-02-11T13:33:34.202Z,7.15
2023-02-11T13:36:36.400Z,7.22
2023-02-11T13:39:39.366Z,7.29
2023-02-11T13:42:52.237Z,7.40
2023-02-11T13:46:00.554Z,7.41
2023-02-11T13:49:02.833Z,7.33
2023-02-11T13:52:18.379Z,7.34
2023-02-11T13:55:23.811Z,7.32
2023-02-11T13:58:28.967Z,7.28
2023-02-11T14:01:39.421Z,7.11
2023-02-11T14:05:31.748Z,6.99
2023-02-11T14:08:52.433Z,6.94
2023-02-11T14:12:31.504Z,7.09
2023-02-11T14:15:40.489Z,7.02
2023-02-11T14:18:49.227Z,7.09
2023-02-11T14:21:51.412Z,7.15
2023-02-11T14:25:01.450Z,7.18
2023-02-11T14:28:17.348Z,7.19
2023-02-11T14:31:26.232Z,7.20
2023-02-11T14:34:51.718Z,7.28
2023-02-11T14:38:00.207Z,7.25
2023-02-11T14:41:25.399Z,7.26
2023-02-11T14:44:31.250Z,7.33
2023-02-11T14:47:46.758Z,7.17
2023-02-11T14:51:00.550Z,7.14
2023-02-11T14:54:24.893Z,7.10
2023-02-11T14:57:28.079Z,7.20
2023-02-11T15:00:30.503Z,7.16
2023-02-11T15:03:36.249Z,7.06
2023-02-11T15:06:49.723Z,7.16
2023-02-11T15:09:54.165Z,7.16
2023-02-11T15:12:57.471Z,7.08
2023-02-11T15:16:09.288Z,6.85
2023-02-11T15:19:28.397Z,6.82
2023-02-11T15:22:36.503Z,6.71
2023-02-11T15:25:51.173Z,6.65
2023-02-11T15:28:53.680Z,6.63
2023-02-11T15:32:23.152Z,6.61
2023-02-11T15:35:32.386Z,6.55
2023-02-11T15:38:34.574Z,6.48
2023-02-11T15:41:38.699Z,6.44
2023-02-11T15:44:41.344Z,6.40
2023-02-11T15:47:53.727Z,6.50
2023-02-11T15:51:00.206Z,6.30
2023-02-11T15:54:08.938Z,6.19
2023-02-11T15:57:11.733Z,6.18
2023-02-11T16:00:17.189Z,6.16
2023-02-11T16:03:25.349Z,6.08
2023-02-11T16:06:36.978Z,6.04
2023-02-11T16:09:39.819Z,5.98
2023-02-11T16:12:54.727Z,5.82
2023-02-11T16:16:02.452Z,5.81
2023-02-11T16:19:06.442Z,5.74
2023-02-11T16:22:14.879Z,5.70
2023-02-11T16:25:20.599Z,5.65
2023-02-11T16:28:23.102Z,5.66
2023-02-11T16:31:42.150Z,5.49
2023-02-11T16:34:44.573Z,5.45
2023-02-11T16:37:46.716Z,5.39
2023-02-11T16:40:50.043Z,5.44
2023-02-11T16:43:52.392Z,5.43
2023-02-11T16:46:58.445Z,5.34
2023-02-11T16:50:02.221Z,5.29
2023-02-11T16:53:06.436Z,5.31
2023-02-11T16:56:16.055Z,5.30
2023-02-11T16:59:18.553Z,5.36
2023-02-11T17:02:26.062Z,5.42
2023-02-11T17:05:28.475Z,5.36
2023-02-11T17:08:30.614Z,5.43
2023-02-11T17:11:33.068Z,5.46
2023-02-11T17:14:35.239Z,5.46
2023-02-11T17:17:37.762Z,5.35
2023-02-11T17:20:40.474Z,5.31
2023-02-11T17:23:43.112Z,5.27
2023-02-11T17:26:46.270Z,5.25
2023-02-11T17:29:48.792Z,5.23
2023-02-11T17:32:51.007Z,5.16
2023-02-11T17:35:53.933Z,5.15
2023-02-11T17:38:56.525Z,5.10
2023-02-11T17:41:58.979Z,5.08
2023-02-11T17:45:01.161Z,5.06
2023-02-11T17:48:03.828Z,5.05
2023-02-11T17:51:20.470Z,5.05
2023-02-11T17:54:23.029Z,4.95
2023-02-11T17:57:25.158Z,4.85
2023-02-11T18:00:28.363Z,4.80
2023-02-11T18:03:30.892Z,4.80
2023-02-11T18:06:36.191Z,4.81
2023-02-11T18:09:40.445Z,4.76
2023-02-11T18:12:42.836Z,4.76
2023-02-11T18:15:45.247Z,4.72
2023-02-11T18:18:47.611Z,4.66
2023-02-11T18:21:50.918Z,4.62
2023-02-11T18:24:54.665Z,4.53
2023-02-11T18:27:57.089Z,4.58
2023-02-11T18:31:00.179Z,4.57
2023-02-11T18:34:05.759Z,4.57
2023-02-11T18:37:08.275Z,4.54
2023-02-11T18:40:11.491Z,4.60
2023-02-11T18:43:14.351Z,4.41
2023-02-11T18:46:17.268Z,4.39
2023-02-11T18:49:20.180Z,4.48
2023-02-11T18:52:22.696Z,4.55
2023-02-11T18:55:25.907Z,4.44
2023-02-11T18:58:28.385Z,4.39
2023-02-11T19:01:33.033Z,4.39
2023-02-11T19:04:37.324Z,4.44
2023-02-11T19:07:39.713Z,4.44
2023-02-11T19:10:44.451Z,4.38
2023-02-11T19:13:47.837Z,4.42
2023-02-11T19:16:52.795Z,4.50
2023-02-11T19:19:55.014Z,4.44
2023-02-11T19:22:57.436Z,4.42
2023-02-11T19:25:59.631Z,4.34
2023-02-11T19:29:02.285Z,4.34
2023-02-11T19:32:08.579Z,4.39
2023-02-11T19:35:11.064Z,4.26
2023-02-11T19:38:15.672Z,4.33
2023-02-11T19:41:23.055Z,4.41
2023-02-11T19:44:25.252Z,4.45
2023-02-11T19:47:27.892Z,4.43
2023-02-11T19:50:30.219Z,4.33
2023-02-11T19:53:32.595Z,4.31
2023-02-11T19:59:12.028Z,4.39
2023-02-11T20:02:14.598Z,4.33
2023-02-11T20:05:17.091Z,4.31
2023-02-11T20:08:19.203Z,4.30
2023-02-11T20:11:21.594Z,4.27
2023-02-11T20:14:26.159Z,4.31
2023-02-11T20:17:29.985Z,4.22
2023-02-11T20:20:32.214Z,4.26
2023-02-11T20:23:35.717Z,4.29
2023-02-11T20:26:40.824Z,4.32
2023-02-11T20:29:43.208Z,4.34
2023-02-11T20:32:45.409Z,4.35
2023-02-11T20:35:56.854Z,4.45
2023-02-11T20:38:59.660Z,4.52
2023-02-11T20:42:01.965Z,4.47
2023-02-11T20:45:04.316Z,4.44
2023-02-11T20:48:06.752Z,4.35
2023-02-11T20:51:11.650Z,4.49
2023-02-11T20:54:17.634Z,4.79
2023-02-11T20:57:19.810Z,5.07
2023-02-11T21:00:22.261Z,5.25
2023-02-11T21:03:24.516Z,5.37
2023-02-11T21:06:31.207Z,5.39
2023-02-11T21:09:33.622Z,5.43
2023-02-11T21:12:36.105Z,5.47
2023-02-11T21:15:38.259Z,5.51
2023-02-11T21:18:40.688Z,5.55
2023-02-11T21:21:43.113Z,5.62
2023-02-11T21:24:45.604Z,5.59
2023-02-11T21:27:47.722Z,5.57
2023-02-11T21:30:50.579Z,5.54
2023-02-11T21:33:54.986Z,5.69
2023-02-11T21:36:57.406Z,5.70
2023-02-11T21:39:59.587Z,5.73
2023-02-11T21:43:01.988Z,5.70
2023-02-11T21:46:13.105Z,5.69
2023-02-11T21:49:15.581Z,5.77
2023-02-11T21:52:17.680Z,5.72
2023-02-11T21:55:20.150Z,5.78
2023-02-11T21:58:22.776Z,5.84
2023-02-11T22:01:27.765Z,5.70
2023-02-11T22:04:30.825Z,5.76
2023-02-11T22:07:35.468Z,5.68
2023-02-11T22:10:38.912Z,5.54
2023-02-11T22:13:41.415Z,5.58
2023-02-11T22:16:45.265Z,5.50
2023-02-11T22:19:47.397Z,5.49
2023-02-11T22:22:50.727Z,5.62
2023-02-11T22:25:53.102Z,5.51
2023-02-11T22:28:56.370Z,5.51
2023-02-11T22:31:58.677Z,5.48
2023-02-11T22:35:01.202Z,5.50
2023-02-11T22:38:04.381Z,5.35
2023-02-11T22:41:10.216Z,5.43
2023-02-11T22:44:13.283Z,5.47
2023-02-11T22:47:15.671Z,5.44
2023-02-11T22:50:17.853Z,5.42
2023-02-11T22:53:20.313Z,5.34
2023-02-11T22:56:23.735Z,5.29
2023-02-11T22:59:26.191Z,5.28
2023-02-11T23:02:28.376Z,5.28
2023-02-11T23:05:30.854Z,5.20
2023-02-11T23:08:33.670Z,5.12
2023-02-11T23:11:36.443Z,5.22
2023-02-11T23:14:38.540Z,5.24
2023-02-11T23:17:40.937Z,5.28
2023-02-11T23:20:43.893Z,5.24
2023-02-11T23:23:46.657Z,5.19
2023-02-11T23:26:49.146Z,5.09
2023-02-11T23:29:51.531Z,5.25
2023-02-11T23:32:53.731Z,5.19
2023-02-11T23:35:56.363Z,5.18
2023-02-11T23:38:58.710Z,5.16
2023-02-11T23:42:01.212Z,5.18
2023-02-11T23:45:03.520Z,5.09
2023-02-11T23:48:05.982Z,5.24
2023-02-11T23:51:09.783Z,5.26
2023-02-11T23:54:13.822Z,5.27
2023-02-11T23:57:16.004Z,5.21
